createdAt,value
2016-06-04T00:00:35.105Z,24.26
2016-06-04T00:01:35.122Z,24.34
2016-06-04T00:02:35.360Z,24.29
2016-06-04T00:03:35.158Z,24.37
2016-06-04T00:04:34.850Z,24.27
2016-06-04T00:05:35.086Z,24.24
2016-06-04T00:06:35.246Z,24.3
2016-06-04T00:07:35.139Z,24.26
2016-06-04T00:08:35.001Z,24.22
2016-06-04T00:09:35.285Z,24.3
2016-06-04T00:10:35.194Z,24.21
2016-06-04T00:11:35.743Z,24.3
2016-06-04T00:12:35.354Z,24.32
2016-06-04T00:13:35.218Z,24.32
2016-06-04T00:14:34.720Z,24.29
2016-06-04T00:15:34.629Z,24.21
2016-06-04T00:16:35.147Z,24.27
2016-06-04T00:17:35.134Z,24.27
2016-06-04T00:18:35.153Z,24.3
2016-06-04T00:19:35.217Z,24.24
2016-06-04T00:20:35.049Z,24.27
2016-06-04T00:21:34.551Z,24.18
2016-06-04T00:22:35.289Z,24.26
2016-06-04T00:23:34.697Z,24.3
2016-06-04T00:24:35.137Z,24.27
2016-06-04T00:25:35.312Z,24.21
2016-06-04T00:26:35.425Z,24.33
2016-06-04T00:27:35.411Z,24.27
2016-06-04T00:28:34.679Z,24.27
2016-06-04T00:29:34.714Z,24.19
2016-06-04T00:30:34.653Z,24.27
2016-06-04T00:31:35.344Z,24.3
2016-06-04T00:32:34.940Z,24.26
2016-06-04T00:33:34.568Z,24.29
2016-06-04T00:34:34.727Z,24.26
2016-06-04T00:35:34.964Z,24.26
2016-06-04T00:36:35.201Z,24.26
2016-06-04T00:37:35.422Z,24.27
2016-06-04T00:38:35.347Z,24.19
2016-06-04T00:39:35.241Z,24.29
2016-06-04T00:40:35.383Z,24.22
2016-06-04T00:41:35.215Z,24.26
2016-06-04T00:42:34.952Z,24.3
2016-06-04T00:43:35.438Z,24.24
2016-06-04T00:44:35.051Z,24.21
2016-06-04T00:45:34.646Z,24.29
2016-06-04T00:46:34.525Z,24.22
2016-06-04T00:47:35.043Z,24.3
2016-06-04T00:48:35.202Z,24.21
2016-06-04T00:49:35.189Z,24.24
2016-06-04T00:50:34.832Z,24.26
2016-06-04T00:51:35.335Z,24.19
2016-06-04T00:52:35.244Z,24.24
2016-06-04T00:53:35.357Z,24.29
2016-06-04T00:54:35.218Z,24.19
2016-06-04T00:55:35.252Z,24.22
2016-06-04T00:56:35.458Z,24.3
2016-06-04T00:57:35.461Z,24.27
2016-06-04T00:58:35.292Z,24.24
2016-06-04T00:59:35.368Z,24.22
2016-06-04T01:00:35.437Z,24.26
2016-06-04T01:01:34.753Z,24.3
2016-06-04T01:02:35.243Z,24.21
2016-06-04T01:03:35.529Z,24.26
2016-06-04T01:04:35.369Z,24.18
2016-06-04T01:05:35.072Z,24.26
2016-06-04T01:06:35.196Z,24.29
2016-06-04T01:07:35.445Z,24.21
2016-06-04T01:08:35.491Z,24.36
2016-06-04T01:09:35.689Z,24.18
2016-06-04T01:10:35.556Z,24.22
2016-06-04T01:11:35.703Z,24.21
2016-06-04T01:12:35.398Z,24.21
2016-06-04T01:13:35.499Z,24.32
2016-06-04T01:14:35.114Z,24.29
2016-06-04T01:15:35.681Z,24.17
2016-06-04T01:16:35.372Z,24.24
2016-06-04T01:17:34.814Z,24.32
2016-06-04T01:18:35.772Z,24.21
2016-06-04T01:19:34.884Z,24.22
2016-06-04T01:20:35.496Z,24.14
2016-06-04T01:21:34.766Z,24.24
2016-06-04T01:22:35.644Z,24.3
2016-06-04T01:23:35.491Z,24.15
2016-06-04T01:24:35.541Z,24.24
2016-06-04T01:25:35.716Z,24.15
2016-06-04T01:26:35.828Z,24.15
2016-06-04T01:27:35.628Z,24.21
2016-06-04T01:28:35.646Z,24.09
2016-06-04T01:30:58.609Z,24.18
2016-06-04T01:31:58.579Z,24.27
2016-06-04T01:32:59.567Z,24.17
2016-06-04T01:33:59.037Z,24.18
2016-06-04T01:34:59.541Z,24.24
2016-06-04T01:35:58.637Z,24.27
2016-06-04T01:36:59.375Z,24.22
2016-06-04T01:37:59.456Z,24.24
2016-06-04T01:38:59.473Z,24.18
2016-06-04T01:39:58.804Z,24.19
2016-06-04T01:40:59.292Z,24.21
2016-06-04T01:41:59.419Z,24.27
2016-06-04T01:42:58.844Z,24.15
2016-06-04T01:43:58.815Z,24.18
2016-06-04T01:45:00.442Z,24.19
2016-06-04T01:45:58.508Z,24.29
2016-06-04T01:46:58.730Z,24.15
2016-06-04T01:47:59.233Z,24.29
2016-06-04T01:48:59.469Z,24.24
2016-06-04T01:49:59.441Z,24.3
2016-06-04T01:50:58.724Z,24.19
2016-06-04T01:51:59.368Z,24.24
2016-06-04T01:52:58.824Z,24.17
2016-06-04T01:53:58.310Z,24.22
2016-06-04T01:54:59.173Z,24.12
2016-06-04T01:56:00.051Z,24.12
2016-06-04T01:56:58.647Z,24.21
2016-06-04T01:57:59.525Z,24.21
2016-06-04T01:58:58.918Z,24.12
2016-06-04T01:59:58.998Z,24.12
2016-06-04T02:00:59.236Z,24.17
2016-06-04T02:01:59.207Z,24.18
2016-06-04T02:02:59.647Z,24.26
2016-06-04T02:03:59.291Z,24.12
2016-06-04T02:05:00.450Z,24.17
2016-06-04T02:07:23.674Z,24.11
2016-06-04T02:08:23.989Z,24.11
2016-06-04T02:09:23.960Z,24.21
2016-06-04T02:10:24.089Z,24.11
2016-06-04T02:11:23.654Z,24.24
2016-06-04T02:12:24.421Z,24.07
2016-06-04T02:13:24.315Z,24.17
2016-06-04T02:14:23.927Z,24.19
2016-06-04T02:15:23.992Z,24.15
2016-06-04T02:16:24.135Z,24.12
2016-06-04T02:17:24.107Z,24.18
2016-06-04T02:18:23.938Z,24.18
2016-06-04T02:19:23.722Z,24.19
2016-06-04T02:20:24.068Z,24.12
2016-06-04T02:21:23.914Z,24.11
2016-06-04T02:22:24.167Z,24.22
2016-06-04T02:23:24.592Z,24.17
2016-06-04T02:24:24.314Z,24.17
2016-06-04T02:25:23.785Z,24.14
2016-06-04T02:26:24.646Z,24.15
2016-06-04T02:27:24.305Z,24.15
2016-06-04T02:28:24.480Z,24.14
2016-06-04T02:29:24.342Z,24.15
2016-06-04T02:30:23.938Z,24.24
2016-06-04T02:31:23.988Z,24.11
2016-06-04T02:32:24.663Z,24.08
2016-06-04T02:33:24.134Z,24.17
2016-06-04T02:34:24.512Z,24.14
2016-06-04T02:35:24.484Z,24.18
2016-06-04T02:36:24.049Z,24.14
2016-06-04T02:37:23.989Z,24.17
2016-06-04T02:38:24.428Z,24.17
2016-06-04T02:39:24.307Z,24.14
2016-06-04T02:40:24.559Z,24.15
2016-06-04T02:41:25.859Z,24.14
2016-06-04T02:42:24.612Z,24.18
2016-06-04T02:43:24.380Z,24.08
2016-06-04T02:44:24.492Z,24.12
2016-06-04T02:45:24.448Z,24.24
2016-06-04T02:46:24.419Z,24.14
2016-06-04T02:47:24.266Z,24.18
2016-06-04T02:48:24.190Z,24.09
2016-06-04T02:49:24.083Z,24.14
2016-06-04T02:50:24.258Z,24.11
2016-06-04T02:51:24.183Z,24.09
2016-06-04T02:52:24.654Z,24.27
2016-06-04T02:53:24.235Z,24.07
2016-06-04T02:55:48.305Z,24.15
2016-06-04T02:56:48.027Z,24.14
2016-06-04T02:57:48.420Z,24.09
2016-06-04T02:58:47.751Z,24.14
2016-06-04T02:59:47.910Z,24.11
2016-06-04T03:00:48.413Z,24.14
2016-06-04T03:01:47.821Z,24.17
2016-06-04T03:02:48.043Z,24.09
2016-06-04T03:03:48.171Z,24.11
2016-06-04T03:04:47.815Z,24.11
2016-06-04T03:05:47.942Z,24.12
2016-06-04T03:06:47.976Z,24.22
2016-06-04T03:07:47.807Z,24.17
2016-06-04T03:08:48.028Z,24.15
2016-06-04T03:09:47.687Z,24.12
2016-06-04T03:10:48.252Z,24.09
2016-06-04T03:11:47.692Z,24.15
2016-06-04T03:12:47.630Z,24.12
2016-06-04T03:13:48.151Z,24.09
2016-06-04T03:14:48.059Z,24.12
2016-06-04T03:15:47.731Z,24.14
2016-06-04T03:16:47.894Z,24.12
2016-06-04T03:17:48.271Z,24.18
2016-06-04T03:18:47.771Z,24.14
2016-06-04T03:19:48.152Z,24.11
2016-06-04T03:20:48.154Z,24.15
2016-06-04T03:21:47.575Z,24.14
2016-06-04T03:22:47.689Z,24.08
2016-06-04T03:23:47.941Z,24.09
2016-06-04T03:24:47.834Z,24.14
2016-06-04T03:25:48.496Z,24.11
2016-06-04T03:26:48.592Z,24.14
2016-06-04T03:27:48.124Z,24.24
2016-06-04T03:28:47.642Z,24.17
2016-06-04T03:29:48.238Z,24.18
2016-06-04T03:30:47.882Z,24.21
2016-06-04T03:31:47.775Z,24.12
2016-06-04T03:32:47.935Z,24.17
2016-06-04T03:33:47.498Z,24.18
2016-06-04T03:34:48.221Z,24.12
2016-06-04T03:35:48.176Z,24.12
2016-06-04T03:36:48.148Z,24.12
2016-06-04T03:37:47.822Z,24.17
2016-06-04T03:38:48.246Z,24.22
2016-06-04T03:39:47.921Z,24.17
2016-06-04T03:40:47.909Z,24.15
2016-06-04T03:41:48.051Z,24.27
2016-06-04T03:42:48.195Z,24.15
2016-06-04T03:43:48.103Z,24.17
2016-06-04T03:44:47.794Z,24.17
2016-06-04T03:45:48.000Z,24.17
2016-06-04T03:46:48.112Z,24.14
2016-06-04T03:47:47.975Z,24.24
2016-06-04T03:48:48.180Z,24.15
2016-06-04T03:49:48.011Z,24.21
2016-06-04T03:50:47.841Z,24.17
2016-06-04T03:51:47.485Z,24.12
2016-06-04T03:52:48.158Z,24.18
2016-06-04T03:53:48.147Z,24.15
2016-06-04T03:54:48.243Z,24.12
2016-06-04T03:55:48.027Z,24.15
2016-06-04T03:56:48.154Z,24.12
2016-06-04T03:57:47.735Z,24.19
2016-06-04T03:58:48.207Z,24.12
2016-06-04T03:59:47.897Z,24.14
2016-06-04T04:00:47.790Z,24.14
2016-06-04T04:01:48.215Z,24.17
2016-06-04T04:02:47.905Z,24.15
2016-06-04T04:03:47.799Z,24.14
2016-06-04T04:04:48.238Z,24.18
2016-06-04T04:05:48.226Z,24.12
2016-06-04T04:06:47.713Z,24.18
2016-06-04T04:07:48.215Z,24.12
2016-06-04T04:08:48.171Z,24.12
2016-06-04T04:09:48.033Z,24.15
2016-06-04T04:10:48.286Z,24.17
2016-06-04T04:11:49.023Z,24.21
2016-06-04T04:12:48.057Z,24.17
2016-06-04T04:13:48.294Z,24.19
2016-06-04T04:14:48.187Z,24.15
2016-06-04T04:15:48.300Z,24.22
2016-06-04T04:16:47.802Z,24.17
2016-06-04T04:17:48.430Z,24.27
2016-06-04T04:18:48.120Z,24.17
2016-06-04T04:19:47.919Z,24.21
2016-06-04T04:20:47.922Z,24.18
2016-06-04T04:21:48.175Z,24.21
2016-06-04T04:22:48.100Z,24.11
2016-06-04T04:23:47.961Z,24.12
2016-06-04T04:24:47.964Z,24.19
2016-06-04T04:25:48.311Z,24.21
2016-06-04T04:26:48.423Z,24.12
2016-06-04T04:27:48.285Z,24.12
2016-06-04T04:28:47.866Z,24.15
2016-06-04T04:29:48.119Z,24.11
2016-06-04T04:30:47.808Z,24.24
2016-06-04T04:31:48.232Z,24.17
2016-06-04T04:32:48.110Z,24.15
2016-06-04T04:33:47.988Z,24.14
2016-06-04T04:34:48.132Z,24.12
2016-06-04T04:35:47.853Z,24.27
2016-06-04T04:36:48.168Z,24.15
2016-06-04T04:37:48.062Z,24.19
2016-06-04T04:38:48.079Z,24.21
2016-06-04T04:39:47.677Z,24.17
2016-06-04T04:40:48.163Z,24.12
2016-06-04T04:41:48.104Z,24.18
2016-06-04T04:42:48.122Z,24.22
2016-06-04T04:43:47.984Z,24.29
2016-06-04T04:44:48.174Z,24.27
2016-06-04T04:45:47.834Z,24.18
2016-06-04T04:46:48.226Z,24.26
2016-06-04T04:47:47.979Z,24.17
2016-06-04T04:48:47.716Z,24.12
2016-06-04T04:49:48.156Z,24.09
2016-06-04T04:50:47.628Z,24.17
2016-06-04T04:51:47.725Z,24.12
2016-06-04T04:52:48.070Z,24.15
2016-06-04T04:53:48.183Z,24.18
2016-06-04T04:54:47.858Z,24.11
2016-06-04T04:55:48.079Z,24.09
2016-06-04T04:56:48.941Z,24.14
2016-06-04T04:57:48.115Z,24.14
2016-06-04T04:58:48.306Z,24.09
2016-06-04T04:59:48.308Z,24.18
2016-06-04T05:00:47.888Z,24.17
2016-06-04T05:01:48.344Z,24.14
2016-06-04T05:02:47.957Z,24.12
2016-06-04T05:03:48.507Z,24.12
2016-06-04T05:04:47.869Z,24.09
2016-06-04T05:05:48.402Z,24.07
2016-06-04T05:06:47.968Z,24.14
2016-06-04T05:07:48.627Z,24.07
2016-06-04T05:08:48.082Z,24.14
2016-06-04T05:09:48.085Z,24.14
2016-06-04T05:10:47.932Z,24.11
2016-06-04T05:11:49.262Z,24.18
2016-06-04T05:12:48.265Z,24.19
2016-06-04T05:13:47.924Z,24.12
2016-06-04T05:14:48.349Z,24.12
2016-06-04T05:15:48.523Z,24.12
2016-06-04T05:16:47.978Z,24.07
2016-06-04T05:17:48.388Z,24.08
2016-06-04T05:18:47.969Z,24.11
2016-06-04T05:19:48.175Z,24.12
2016-06-04T05:20:47.881Z,24.15
2016-06-04T05:21:48.603Z,24.17
2016-06-04T05:22:48.198Z,24.09
2016-06-04T05:23:47.872Z,24.12
2016-06-04T05:24:48.314Z,24.17
2016-06-04T05:25:48.378Z,24.04
2016-06-04T05:26:48.162Z,24.11
2016-06-04T05:27:48.149Z,24.19
2016-06-04T05:28:48.277Z,24.11
2016-06-04T05:29:48.139Z,24.18
2016-06-04T05:30:48.360Z,24.14
2016-06-04T05:31:48.175Z,24.15
2016-06-04T05:32:47.913Z,24.12
2016-06-04T05:33:48.416Z,24.17
2016-06-04T05:34:48.543Z,24.09
2016-06-04T05:35:48.280Z,24.17
2016-06-04T05:36:48.438Z,24.08
2016-06-04T05:37:48.114Z,24.12
2016-06-04T05:38:47.913Z,24.03
2016-06-04T05:39:47.791Z,24.15
2016-06-04T05:40:48.357Z,24.08
2016-06-04T05:41:47.671Z,24.09
2016-06-04T05:42:47.877Z,24.08
2016-06-04T05:43:48.129Z,24.17
2016-06-04T05:44:48.289Z,24.03
2016-06-04T05:45:48.495Z,24.08
2016-06-04T05:46:47.778Z,24.17
2016-06-04T05:47:48.265Z,24.19
2016-06-04T05:48:47.940Z,24.17
2016-06-04T05:49:48.224Z,24.09
2016-06-04T05:50:48.148Z,24.17
2016-06-04T05:51:48.167Z,24.09
2016-06-04T05:52:47.857Z,24.17
2016-06-04T05:53:48.328Z,24.08
2016-06-04T05:54:47.956Z,24.08
2016-06-04T05:55:48.506Z,24.11
2016-06-04T05:56:48.414Z,24.08
2016-06-04T05:57:48.480Z,24.21
2016-06-04T05:58:48.155Z,24.14
2016-06-04T05:59:48.861Z,24.09
2016-06-04T06:00:48.097Z,24.09
2016-06-04T06:01:47.881Z,24.17
2016-06-04T06:02:48.227Z,24.09
2016-06-04T06:03:48.231Z,24.08
2016-06-04T06:04:48.233Z,24.12
2016-06-04T06:05:48.596Z,24.12
2016-06-04T06:06:48.098Z,24.11
2016-06-04T06:07:48.335Z,24.12
2016-06-04T06:08:48.134Z,24.15
2016-06-04T06:09:48.340Z,24.08
2016-06-04T06:10:48.671Z,24.08
2016-06-04T06:11:47.971Z,24.15
2016-06-04T06:12:48.395Z,24.08
2016-06-04T06:13:48.632Z,24.03
2016-06-04T06:14:47.901Z,24.03
2016-06-04T06:15:48.419Z,24.04
2016-06-04T06:16:48.109Z,24.07
2016-06-04T06:17:48.221Z,24.15
2016-06-04T06:18:48.256Z,24.08
2016-06-04T06:19:48.351Z,24.04
2016-06-04T06:20:48.229Z,24.04
2016-06-04T06:21:48.248Z,24.15
2016-06-04T06:22:48.391Z,24.09
2016-06-04T06:23:47.972Z,24.04
2016-06-04T06:24:47.911Z,24.08
2016-06-04T06:25:48.461Z,24.11
2016-06-04T06:26:48.324Z,24.17
2016-06-04T06:27:47.983Z,24.19
2016-06-04T06:28:48.110Z,24.11
2016-06-04T06:29:48.410Z,24.14
2016-06-04T06:30:48.006Z,23.99
2016-06-04T06:31:48.055Z,24.04
2016-06-04T06:32:48.386Z,24.08
2016-06-04T06:33:48.233Z,24.07
2016-06-04T06:34:48.970Z,24.14
2016-06-04T06:35:48.629Z,24.08
2016-06-04T06:36:48.241Z,24.04
2016-06-04T06:37:48.291Z,24
2016-06-04T06:38:47.746Z,24.08
2016-06-04T06:39:48.124Z,24.08
2016-06-04T06:40:48.283Z,24.08
2016-06-04T06:41:48.520Z,24.15
2016-06-04T06:42:48.304Z,24.14
2016-06-04T06:43:48.526Z,24.07
2016-06-04T06:44:48.168Z,24.08
2016-06-04T06:45:48.015Z,24.08
2016-06-04T06:46:48.268Z,24.19
2016-06-04T06:47:48.084Z,24.11
2016-06-04T06:48:48.398Z,24.08
2016-06-04T06:49:48.432Z,24.08
2016-06-04T06:50:48.262Z,24.07
2016-06-04T06:51:48.704Z,24.08
2016-06-04T06:52:47.940Z,24.08
2016-06-04T06:53:47.928Z,24.08
2016-06-04T06:54:48.414Z,24.04
2016-06-04T06:55:48.089Z,24.14
2016-06-04T06:56:48.186Z,24.15
2016-06-04T06:57:48.485Z,24.08
2016-06-04T06:58:48.363Z,24.12
2016-06-04T06:59:48.350Z,24.12
2016-06-04T07:00:48.447Z,24.17
2016-06-04T07:01:48.340Z,24.11
2016-06-04T07:02:48.280Z,24.15
2016-06-04T07:03:48.470Z,24.08
2016-06-04T07:04:48.207Z,24.18
2016-06-04T07:05:48.116Z,24.12
2016-06-04T07:06:48.541Z,24.14
2016-06-04T07:07:48.388Z,24.15
2016-06-04T07:08:48.296Z,24
2016-06-04T07:09:48.313Z,24.17
2016-06-04T07:10:48.910Z,24.09
2016-06-04T07:11:48.976Z,24.15
2016-06-04T07:12:48.587Z,24.14
2016-06-04T07:13:48.184Z,24.07
2016-06-04T07:14:48.360Z,24.08
2016-06-04T07:15:48.252Z,24.08
2016-06-04T07:16:48.317Z,24.11
2016-06-04T07:17:48.351Z,24.08
2016-06-04T07:18:48.276Z,24.19
2016-06-04T07:19:48.295Z,24.07
2016-06-04T07:20:48.390Z,24.17
2016-06-04T07:21:48.612Z,24.14
2016-06-04T07:22:48.599Z,24.07
2016-06-04T07:23:48.446Z,24.14
2016-06-04T07:24:48.073Z,24.19
2016-06-04T07:27:44.441Z,24.11
2016-06-04T07:28:11.412Z,24.18
2016-06-04T07:29:11.572Z,24.15
2016-06-04T07:30:12.261Z,24.12
2016-06-04T07:31:12.045Z,24.17
2016-06-04T07:32:11.782Z,24.14
2016-06-04T07:33:11.847Z,24.08
2016-06-04T07:34:11.960Z,24.12
2016-06-04T07:35:12.025Z,24.15
2016-06-04T07:36:12.152Z,24.12
2016-06-04T07:37:11.889Z,24.04
2016-06-04T07:38:11.939Z,24.15
2016-06-04T07:39:12.177Z,24.09
2016-06-04T07:40:12.210Z,24.07
2016-06-04T07:41:12.010Z,24.04
2016-06-04T07:42:11.810Z,24.15
2016-06-04T07:43:12.235Z,24.15
2016-06-04T07:44:11.455Z,24.18
2016-06-04T07:45:11.989Z,24.12
2016-06-04T07:46:11.835Z,24.04
2016-06-04T07:47:11.729Z,24.17
2016-06-04T07:48:11.841Z,24.12
2016-06-04T07:49:11.875Z,24.08
2016-06-04T07:50:12.049Z,24.17
2016-06-04T07:51:11.771Z,24.19
2016-06-04T07:52:12.414Z,24.07
2016-06-04T07:53:11.417Z,24.12
2016-06-04T07:54:11.872Z,24.12
2016-06-04T07:55:12.329Z,24.09
2016-06-04T07:56:12.862Z,24.18
2016-06-04T07:57:12.131Z,24.17
2016-06-04T07:58:12.025Z,24.11
2016-06-04T07:59:12.214Z,24.08
2016-06-04T08:00:12.030Z,24.09
2016-06-04T08:01:11.970Z,24.17
2016-06-04T08:02:12.269Z,24.08
2016-06-04T08:03:11.788Z,24.17
2016-06-04T08:04:11.259Z,24.12
2016-06-04T08:05:12.136Z,24.15
2016-06-04T08:06:12.014Z,24.12
2016-06-04T08:07:11.783Z,24.07
2016-06-04T08:08:11.958Z,24.04
2016-06-04T08:09:12.132Z,24.09
2016-06-04T08:10:12.150Z,24.18
2016-06-04T08:11:12.340Z,24.07
2016-06-04T08:12:11.718Z,24.12
2016-06-04T08:13:12.127Z,24.11
2016-06-04T08:14:12.379Z,24.22
2016-06-04T08:15:11.899Z,24.12
2016-06-04T08:16:11.901Z,24.11
2016-06-04T08:17:11.841Z,24.15
2016-06-04T08:19:38.846Z,24.17
2016-06-04T08:20:37.990Z,24.19
2016-06-04T08:21:38.664Z,24.12
2016-06-04T08:22:38.135Z,24.17
2016-06-04T08:23:38.887Z,24.09
2016-06-04T08:24:37.970Z,24.09
2016-06-04T08:25:38.581Z,24.17
2016-06-04T08:26:38.225Z,24.15
2016-06-04T08:27:38.509Z,24.07
2016-06-04T08:28:38.573Z,24.11
2016-06-04T08:29:39.014Z,24.12
2016-06-04T08:30:38.047Z,24.11
2016-06-04T08:31:38.425Z,24.11
2016-06-04T08:32:38.631Z,24.15
2016-06-04T08:33:38.946Z,24.17
2016-06-04T08:34:38.059Z,24.11
2016-06-04T08:35:38.561Z,24.11
2016-06-04T08:36:44.344Z,24.14
2016-06-04T08:37:38.660Z,24.07
2016-06-04T08:38:39.835Z,24.11
2016-06-04T08:39:38.571Z,24.15
2016-06-04T08:40:38.246Z,24.11
2016-06-04T08:41:38.890Z,24.14
2016-06-04T08:42:38.501Z,24.09
2016-06-04T08:43:38.973Z,24.08
2016-06-04T08:44:38.367Z,24.18
2016-06-04T08:45:38.291Z,24.12
2016-06-04T08:46:38.185Z,24.12
2016-06-04T08:47:38.624Z,24.12
2016-06-04T08:48:38.237Z,24.08
2016-06-04T08:49:38.990Z,24.12
2016-06-04T08:50:38.335Z,24.08
2016-06-04T08:51:39.104Z,24.08
2016-06-04T08:52:38.404Z,24.18
2016-06-04T08:53:38.734Z,24.14
2016-06-04T08:54:38.268Z,24.17
2016-06-04T08:55:38.943Z,24.18
2016-06-04T08:56:38.383Z,24.12
2016-06-04T08:57:39.011Z,24.17
2016-06-04T08:58:38.201Z,24.12
2016-06-04T08:59:38.422Z,24.15
2016-06-04T09:00:38.550Z,24.12
2016-06-04T09:01:38.412Z,24.14
2016-06-04T09:02:38.212Z,24.19
2016-06-04T09:03:38.636Z,24.17
2016-06-04T09:04:38.295Z,24.17
2016-06-04T09:05:38.783Z,24.08
2016-06-04T09:06:38.864Z,24.12
2016-06-04T09:07:38.616Z,24.15
2016-06-04T09:08:38.103Z,24.17
2016-06-04T09:09:38.716Z,24.11
2016-06-04T09:10:38.358Z,24.09
2016-06-04T09:11:38.799Z,24.11
2016-06-04T09:12:38.552Z,24.18
2016-06-04T09:13:39.147Z,24.11
2016-06-04T09:14:38.244Z,24.12
2016-06-04T09:15:41.277Z,24.08
2016-06-04T09:16:38.672Z,24.14
2016-06-04T09:17:38.955Z,24.14
2016-06-04T09:18:38.364Z,24.15
2016-06-04T09:19:38.680Z,24.14
2016-06-04T09:20:40.057Z,24.08
2016-06-04T09:21:38.794Z,24.15
2016-06-04T09:22:38.376Z,24.14
2016-06-04T09:23:39.018Z,24.17
2016-06-04T09:24:38.193Z,24.17
2016-06-04T09:25:41.696Z,24.11
2016-06-04T09:26:38.323Z,24.12
2016-06-04T09:27:38.873Z,24.14
2016-06-04T09:28:38.500Z,24.14
2016-06-04T09:29:38.535Z,24.08
2016-06-04T09:30:38.459Z,24.14
2016-06-04T09:31:38.789Z,24.14
2016-06-04T09:32:38.230Z,24.14
2016-06-04T09:33:38.593Z,24.15
2016-06-04T09:34:38.142Z,24.18
2016-06-04T09:35:38.426Z,24.19
2016-06-04T09:36:38.553Z,24.17
2016-06-04T09:37:38.697Z,24.11
2016-06-04T09:38:38.965Z,24.08
2016-06-04T09:39:38.686Z,24.17
2016-06-04T09:40:38.439Z,24.19
2016-06-04T09:41:38.739Z,24.14
2016-06-04T09:42:38.570Z,24.14
2016-06-04T09:43:39.057Z,24.19
2016-06-04T09:44:38.075Z,24.18
2016-06-04T09:45:38.780Z,24.22
2016-06-04T09:46:38.315Z,24.15
2016-06-04T09:47:38.458Z,24.14
2016-06-04T09:48:38.616Z,24.17
2016-06-04T09:49:38.979Z,24.12
2016-06-04T09:50:38.154Z,24.12
2016-06-04T09:51:38.735Z,24.11
2016-06-04T09:52:38.549Z,24.19
2016-06-04T09:53:38.536Z,24.12
2016-06-04T09:54:38.305Z,24.17
2016-06-04T09:55:39.182Z,24.14
2016-06-04T09:56:38.388Z,24.17
2016-06-04T09:57:39.000Z,24.15
2016-06-04T10:00:34.915Z,24.14
2016-06-04T10:01:02.228Z,24.22
2016-06-04T10:02:02.761Z,24.21
2016-06-04T10:03:02.623Z,24.15
2016-06-04T10:04:02.486Z,24.17
2016-06-04T10:05:03.473Z,24.22
2016-06-04T10:06:02.633Z,24.14
2016-06-04T10:07:02.992Z,24.17
2016-06-04T10:08:02.584Z,24.26
2016-06-04T10:09:02.787Z,24.12
2016-06-04T10:10:02.801Z,24.14
2016-06-04T10:11:02.461Z,24.12
2016-06-04T10:12:03.068Z,24.18
2016-06-04T10:13:03.456Z,24.18
2016-06-04T10:14:02.844Z,24.15
2016-06-04T10:15:03.012Z,24.12
2016-06-04T10:16:02.818Z,24.22
2016-06-04T10:17:02.261Z,24.21
2016-06-04T10:18:02.673Z,24.18
2016-06-04T10:19:03.226Z,24.19
2016-06-04T10:20:03.076Z,24.22
2016-06-04T10:21:03.175Z,24.14
2016-06-04T10:22:03.163Z,24.18
2016-06-04T10:23:02.839Z,24.15
2016-06-04T10:24:02.828Z,24.21
2016-06-04T10:25:03.051Z,24.15
2016-06-04T10:26:03.086Z,24.14
2016-06-04T10:27:02.573Z,24.27
2016-06-04T10:28:03.405Z,24.12
2016-06-04T10:29:03.235Z,24.21
2016-06-04T10:30:02.989Z,24.12
2016-06-04T10:31:02.960Z,24.19
2016-06-04T10:32:03.088Z,24.17
2016-06-04T10:33:03.122Z,24.18
2016-06-04T10:34:03.312Z,24.17
2016-06-04T10:35:03.112Z,24.12
2016-06-04T10:36:03.037Z,24.14
2016-06-04T10:37:03.960Z,24.15
2016-06-04T10:38:03.885Z,24.14
2016-06-04T10:39:03.185Z,24.17
2016-06-04T10:40:02.673Z,24.15
2016-06-04T10:41:03.065Z,24.29
2016-06-04T10:42:03.084Z,24.15
2016-06-04T10:43:02.962Z,24.09
2016-06-04T10:44:03.605Z,24.21
2016-06-04T10:45:02.982Z,24.19
2016-06-04T10:46:02.907Z,24.09
2016-06-04T10:47:03.019Z,24.3
2016-06-04T10:48:03.132Z,24.21
2016-06-04T10:49:02.759Z,24.14
2016-06-04T10:50:03.386Z,24.21
2016-06-04T10:51:03.248Z,24.17
2016-06-04T10:52:03.173Z,24.15
2016-06-04T10:53:03.286Z,24.12
2016-06-04T10:54:02.897Z,24.18
2016-06-04T10:55:02.509Z,24.22
2016-06-04T10:56:02.871Z,24.22
2016-06-04T10:57:03.546Z,24.18
2016-06-04T10:58:03.658Z,24.18
2016-06-04T10:59:02.801Z,24.21
2016-06-04T11:00:02.883Z,24.24
2016-06-04T11:01:02.916Z,24.19
2016-06-04T11:02:02.950Z,24.3
2016-06-04T11:03:03.360Z,24.24
2016-06-04T11:04:02.972Z,24.24
2016-06-04T11:05:02.740Z,24.24
2016-06-04T11:06:02.727Z,24.19
2016-06-04T11:07:02.963Z,24.24
2016-06-04T11:08:02.982Z,24.24
2016-06-04T11:09:04.016Z,24.32
2016-06-04T11:10:02.971Z,24.22
2016-06-04T11:11:03.318Z,24.24
2016-06-04T11:12:02.367Z,24.18
2016-06-04T11:13:04.308Z,24.33
2016-06-04T11:14:03.467Z,24.27
2016-06-04T11:15:02.892Z,24.19
2016-06-04T11:16:03.035Z,24.19
2016-06-04T11:17:02.929Z,24.24
2016-06-04T11:18:02.915Z,24.21
2016-06-04T11:19:03.356Z,24.18
2016-06-04T11:20:02.874Z,24.14
2016-06-04T11:21:02.829Z,24.22
2016-06-04T11:22:03.286Z,24.27
2016-06-04T11:23:03.272Z,24.21
2016-06-04T11:24:02.978Z,24.32
2016-06-04T11:25:04.387Z,24.17
2016-06-04T11:26:03.297Z,24.22
2016-06-04T11:27:03.814Z,24.22
2016-06-04T11:28:03.114Z,24.22
2016-06-04T11:29:02.664Z,24.18
2016-06-04T11:30:03.183Z,24.24
2016-06-04T11:31:03.044Z,24.26
2016-06-04T11:32:03.359Z,24.18
2016-06-04T11:33:02.971Z,24.26
2016-06-04T11:34:03.052Z,24.27
2016-06-04T11:35:03.274Z,24.27
2016-06-04T11:36:02.870Z,24.24
2016-06-04T11:37:02.872Z,24.27
2016-06-04T11:38:03.062Z,24.22
2016-06-04T11:39:02.910Z,24.3
2016-06-04T11:40:02.834Z,24.33
2016-06-04T11:41:03.743Z,24.18
2016-06-04T11:42:03.245Z,24.19
2016-06-04T11:43:03.170Z,24.24
2016-06-04T11:44:03.140Z,24.27
2016-06-04T11:45:03.098Z,24.22
2016-06-04T11:46:03.178Z,24.24
2016-06-04T11:47:03.070Z,24.14
2016-06-04T11:48:02.996Z,24.27
2016-06-04T11:49:02.952Z,24.3
2016-06-04T11:50:03.001Z,24.26
2016-06-04T11:51:03.270Z,24.26
2016-06-04T11:52:02.507Z,24.15
2016-06-04T11:53:02.587Z,24.24
2016-06-04T11:54:03.075Z,24.18
2016-06-04T11:55:03.390Z,24.19
2016-06-04T11:56:03.252Z,24.33
2016-06-04T11:57:04.269Z,24.3
2016-06-04T11:58:03.383Z,24.18
2016-06-04T11:59:02.666Z,24.32
2016-06-04T12:00:03.059Z,24.26
2016-06-04T12:01:03.516Z,24.19
2016-06-04T12:02:02.971Z,24.26
2016-06-04T12:03:02.864Z,24.22
2016-06-04T12:04:03.273Z,24.22
2016-06-04T12:05:03.417Z,24.24
2016-06-04T12:06:03.232Z,24.27
2016-06-04T12:07:02.735Z,24.18
2016-06-04T12:08:03.346Z,24.24
2016-06-04T12:09:03.225Z,24.29
2016-06-04T12:10:03.446Z,24.19
2016-06-04T12:11:03.214Z,24.27
2016-06-04T12:12:04.341Z,24.32
2016-06-04T12:13:02.891Z,24.34
2016-06-04T12:14:03.379Z,24.33
2016-06-04T12:15:03.084Z,24.24
2016-06-04T12:16:02.837Z,24.36
2016-06-04T12:17:02.793Z,24.29
2016-06-04T12:18:03.201Z,24.3
2016-06-04T12:19:03.204Z,24.21
2016-06-04T12:20:03.379Z,24.27
2016-06-04T12:21:03.054Z,24.3
2016-06-04T12:22:03.822Z,24.3
2016-06-04T12:23:03.371Z,24.19
2016-06-04T12:24:03.311Z,24.3
2016-06-04T12:25:03.236Z,24.22
2016-06-04T12:26:03.364Z,24.34
2016-06-04T12:27:03.538Z,24.27
2016-06-04T12:28:03.901Z,24.27
2016-06-04T12:29:04.419Z,24.33
2016-06-04T12:30:03.281Z,24.32
2016-06-04T12:31:03.017Z,24.24
2016-06-04T12:32:03.208Z,24.32
2016-06-04T12:33:03.039Z,24.27
2016-06-04T12:34:03.182Z,24.27
2016-06-04T12:35:03.466Z,24.26
2016-06-04T12:36:04.110Z,24.27
2016-06-04T12:37:05.300Z,24.29
2016-06-04T12:38:03.927Z,24.29
2016-06-04T12:39:03.430Z,24.26
2016-06-04T12:40:03.433Z,24.34
2016-06-04T12:41:02.982Z,24.22
2016-06-04T12:42:03.594Z,24.33
2016-06-04T12:43:03.613Z,24.32
2016-06-04T12:44:03.615Z,24.32
2016-06-04T12:45:04.493Z,24.3
2016-06-04T12:46:03.292Z,24.34
2016-06-04T12:47:03.593Z,24.26
2016-06-04T12:48:03.251Z,24.24
2016-06-04T12:49:03.051Z,24.32
2016-06-04T12:50:03.365Z,24.21
2016-06-04T12:51:04.118Z,24.34
2016-06-04T12:52:04.699Z,24.36
2016-06-04T12:53:04.498Z,24.34
2016-06-04T12:54:04.783Z,24.32
2016-06-04T12:55:04.817Z,24.36
2016-06-04T12:56:04.476Z,24.32
2016-06-04T12:57:03.962Z,24.34
2016-06-04T12:58:04.278Z,24.32
2016-06-04T12:59:04.234Z,24.33
2016-06-04T13:00:04.017Z,24.26
2016-06-04T13:01:04.145Z,24.22
2016-06-04T13:02:02.805Z,24.29